Schnellsuche:     vonnach     am:               Ankunft heute   Abflug heute   
Wetterdaten des Sylter Flughafens. Alle Angaben sind ohne Gewähr.



Datum: 2016-12-06 05:50 UTC
   
Windrichtung: 300°
Windgeschwindigkeit: 5 - 10 Kt.
QNH: 1028 hPa
Temperatur: 7 °C
Taupunkt: 5 °C
rel. Luftfeuchte: 85 %

METAR EDXW 051520Z 29010KT 9999 BKN026 06/02 Q1025 RMK ATIS OSC=

TAF ist für heute noch nicht verfügbar.
 
Wettercam am Vorfeld 1:




Wolkenhöhen in den letzten 48 Stunden:






 


Im Jettempo nach Sylt!



Rhein-Neckar-Air

Mannheim
Die Rhein-Neckar-Air fliegt vom 05. April bis zum 14. Oktober 2017 nach Mannheim. Zur Seite der Rhein-Neckar-Air: www.rn-air.de

airberlin

Zürich, Stuttgart und Düsseldorf
Die airberlin fliegt vom 15. April bis zum 21. Oktober 2017 nach Zürich, vom 08. April bis zum 28. Oktober 2017 nach Stuttgart und vom 06. Dezember bis zum 24. März 2018 nach Düsseldorf. Zur Seite der airberlin: www.airberlin.com

Lufthansa

München und Frankfurt/Main
Die Lufthansa fliegt vom 24. Dezember bis zum 24. März 2018 nach München und vom 23. Dezember bis zum 21. Oktober 2017 nach Frankfurt/Main. Zur Seite der Lufthansa: www.lufthansa.de

Syltair

Hamburg
Die Syltair fliegt vom 13. April bis zum 04. Oktober 2017 nach Hamburg. Zur Seite der Syltair: www.syltair.de